Time;durP1;ratioP1;P1;durP2;ratioP2;P2;SDS_P1;SDS_P2;PMS_P1;PMS_P2;Temp;Humidity;BMP_temperature;BMP_pressure;BME280_temperature;BME280_humidity;BME280_pressure;Samples;Min_cycle;Max_cycle;Signal;HPM_P1;HPM_P2
2023/05/01 00:01:13;;;;;;;0.63;0.63;;;;;;;6.92;69.56;97767.69;5022231;28;20049;-70
2023/05/01 00:03:41;;;;;;;0.82;0.82;;;;;;;6.79;70.19;97772.66;5021742;28;20087;-70
2023/05/01 00:06:09;;;;;;;0.80;0.80;;;;;;;6.62;71.04;97768.34;5031349;28;20120;-70
2023/05/01 00:08:37;;;;;;;0.80;0.80;;;;;;;6.54;71.40;97765.72;5027300;28;20045;-70
2023/05/01 00:11:08;;;;;;;0.57;0.57;;;;;;;6.58;71.03;97764.38;5021107;28;20099;-69
2023/05/01 00:13:36;;;;;;;0.70;0.70;;;;;;;6.54;71.23;97761.22;5030741;28;20053;-69
2023/05/01 00:16:09;;;;;;;0.43;0.43;;;;;;;6.64;70.79;97758.41;5030864;28;20505;-69
2023/05/01 00:18:36;;;;;;;0.70;0.70;;;;;;;6.66;70.56;97764.38;5024291;28;20390;-69
2023/05/01 00:21:04;;;;;;;1.02;1.02;;;;;;;6.57;70.95;97757.41;5027254;28;20046;-70
2023/05/01 00:23:32;;;;;;;0.70;0.70;;;;;;;6.52;71.32;97752.63;5026012;28;20079;-70
2023/05/01 00:25:59;;;;;;;0.65;0.65;;;;;;;6.47;71.31;97752.25;5030984;28;20037;-70
2023/05/01 00:28:28;;;;;;;0.50;0.50;;;;;;;6.49;71.31;97752.09;5022398;28;20069;-69
2023/05/01 00:30:55;;;;;;;0.50;0.50;;;;;;;6.49;71.06;97739.69;5024459;28;20527;-70
2023/05/01 00:33:24;;;;;;;0.75;0.75;;;;;;;6.55;70.63;97743.47;5030723;28;20118;-70
2023/05/01 00:35:51;;;;;;;0.88;0.88;;;;;;;6.56;70.57;97745.97;5027961;28;20068;-69
2023/05/01 00:38:19;;;;;;;0.70;0.70;;;;;;;6.58;70.46;97740.50;5020576;28;20080;-70
2023/05/01 00:40:47;;;;;;;0.73;0.73;;;;;;;6.54;70.81;97742.66;5023971;28;20037;-70
2023/05/01 00:43:15;;;;;;;0.70;0.70;;;;;;;6.55;70.77;97743.47;5036081;28;20065;-70
2023/05/01 00:45:44;;;;;;;0.80;0.80;;;;;;;6.69;69.69;97745.47;5026391;28;20042;-70
2023/05/01 00:48:12;;;;;;;0.75;0.75;;;;;;;6.49;70.49;97744.97;5027564;28;20393;-70
2023/05/01 00:50:41;;;;;;;0.82;0.82;;;;;;;6.33;71.42;97733.56;5022515;28;20151;-70
2023/05/01 00:53:08;;;;;;;0.70;0.70;;;;;;;6.17;72.09;97729.03;5026644;28;20045;-70
2023/05/01 00:55:36;;;;;;;0.75;0.75;;;;;;;6.22;71.53;97724.94;5030519;28;20029;-70
2023/05/01 00:58:04;;;;;;;0.60;0.60;;;;;;;6.12;71.96;97718.94;5024802;28;20057;-69
2023/05/01 01:00:32;;;;;;;0.68;0.68;;;;;;;6.09;72.00;97713.97;5022147;28;20076;-69
2023/05/01 01:02:59;;;;;;;0.63;0.63;;;;;;;6.33;70.74;97715.00;5021470;28;20038;-68
2023/05/01 01:05:31;;;;;;;0.90;0.90;;;;;;;6.31;71.02;97709.84;5025238;28;20048;-69
2023/05/01 01:08:05;;;;;;;0.60;0.60;;;;;;;6.21;71.56;97707.38;5024083;28;20067;-69
2023/05/01 01:10:37;;;;;;;1.08;1.08;;;;;;;6.09;71.76;97711.31;5025534;28;20451;-69
2023/05/01 01:13:09;;;;;;;0.80;0.80;;;;;;;5.98;72.18;97708.97;5041710;28;20041;-69
2023/05/01 01:15:42;;;;;;;0.75;0.75;;;;;;;6.18;71.06;97709.50;5029357;28;20084;-69
2023/05/01 01:18:13;;;;;;;0.70;0.70;;;;;;;6.09;70.48;97713.13;5026727;28;20049;-69
2023/05/01 01:20:45;;;;;;;0.65;0.65;;;;;;;5.69;71.29;97716.50;5026068;28;20100;-69
2023/05/01 01:23:41;;;;;;;0.55;0.55;;;;;;;5.34;73.11;97709.56;5021457;28;20042;-70
2023/05/01 01:26:33;;;;;;;0.80;0.80;;;;;;;5.21;74.23;97704.72;5029719;28;20037;-70
2023/05/01 01:29:35;;;;;;;0.68;0.68;;;;;;;5.50;72.29;97707.81;5020115;28;20038;-70
2023/05/01 01:32:11;;;;;;;0.30;0.30;;;;;;;5.44;72.97;97699.69;5027574;28;20461;-69
2023/05/01 01:34:44;;;;;;;0.65;0.65;;;;;;;5.46;73.95;97690.63;5023236;28;20053;-69
2023/05/01 01:37:17;;;;;;;0.70;0.70;;;;;;;5.37;74.27;97699.50;5024760;28;20377;-69
2023/05/01 01:39:49;;;;;;;0.70;0.70;;;;;;;5.33;74.41;97702.63;5025757;28;20046;-69
2023/05/01 01:42:20;;;;;;;0.60;0.60;;;;;;;5.30;74.71;97695.81;5029488;28;20049;-70
2023/05/01 01:44:51;;;;;;;0.77;0.77;;;;;;;5.34;74.45;97694.53;5026895;28;20049;-70
2023/05/01 01:47:20;;;;;;;0.60;0.60;;;;;;;5.35;74.40;97696.19;5026781;28;20041;-68
2023/05/01 01:49:51;;;;;;;0.80;0.80;;;;;;;5.22;75.01;97690.50;5023919;28;20042;-70
2023/05/01 01:52:20;;;;;;;0.73;0.73;;;;;;;5.26;74.71;97681.28;5028735;28;20060;-70
2023/05/01 01:54:50;;;;;;;0.80;0.80;;;;;;;5.36;73.98;97676.69;5026685;28;20042;-69
2023/05/01 01:57:19;;;;;;;0.57;0.57;;;;;;;5.46;73.59;97666.78;5028342;28;20049;-68
2023/05/01 01:59:48;;;;;;;0.60;0.60;;;;;;;5.67;72.89;97673.47;5027169;28;20099;-67
2023/05/01 02:02:18;;;;;;;1.08;1.08;;;;;;;5.65;72.66;97662.19;5026282;28;20046;-70
2023/05/01 02:04:48;;;;;;;0.70;0.70;;;;;;;5.54;73.02;97666.81;5045696;28;20046;-67
2023/05/01 02:07:17;;;;;;;0.98;0.98;;;;;;;5.51;73.26;97650.41;5030561;28;20041;-68
2023/05/01 02:09:46;;;;;;;0.77;0.77;;;;;;;5.54;73.29;97658.03;5016659;28;20045;-68
2023/05/01 02:12:16;;;;;;;0.68;0.68;;;;;;;5.44;73.42;97652.88;5032875;28;20041;-69
2023/05/01 02:14:44;;;;;;;0.30;0.30;;;;;;;5.43;73.66;97656.50;5033742;28;20405;-68
2023/05/01 02:17:13;;;;;;;0.80;0.80;;;;;;;5.44;73.66;97646.75;5024854;28;20091;-69
2023/05/01 02:19:42;;;;;;;0.80;0.80;;;;;;;5.26;74.51;97638.94;5027677;28;20062;-68
2023/05/01 02:22:10;;;;;;;0.60;0.60;;;;;;;5.39;73.80;97652.56;5031890;28;20049;-71
2023/05/01 02:24:40;;;;;;;0.88;0.88;;;;;;;5.45;73.80;97641.31;5030100;28;20038;-69
2023/05/01 02:27:17;;;;;;;0.63;0.63;;;;;;;5.41;73.99;97636.50;5032715;28;20120;-69
2023/05/01 02:29:44;;;;;;;0.65;0.65;;;;;;;5.39;73.88;97638.50;5030121;28;20042;-69
2023/05/01 02:32:12;;;;;;;0.75;0.75;;;;;;;5.41;74.05;97636.50;5028675;28;20079;-69
2023/05/01 02:34:41;;;;;;;0.85;0.85;;;;;;;5.35;74.57;97640.63;5031355;28;20053;-71
2023/05/01 02:37:11;;;;;;;0.80;0.80;;;;;;;5.42;74.13;97631.03;5030917;28;20041;-69
2023/05/01 02:39:42;;;;;;;0.70;0.70;;;;;;;5.43;73.87;97632.69;5020094;28;20058;-69
2023/05/01 02:42:11;;;;;;;0.68;0.68;;;;;;;5.40;74.12;97633.00;5026882;28;20099;-69
2023/05/01 02:44:42;;;;;;;0.65;0.65;;;;;;;5.35;74.02;97642.44;5038768;28;20096;-69
2023/05/01 02:47:10;;;;;;;0.25;0.25;;;;;;;5.31;74.13;97626.03;5031018;28;20452;-70
2023/05/01 02:49:39;;;;;;;0.75;0.75;;;;;;;5.28;74.37;97636.97;5040064;28;20098;-69
2023/05/01 02:52:07;;;;;;;0.57;0.57;;;;;;;5.10;75.05;97633.56;5029847;28;20052;-69
2023/05/01 02:54:34;;;;;;;0.73;0.73;;;;;;;5.23;74.51;97622.53;5030311;28;20657;-70
2023/05/01 02:57:05;;;;;;;0.88;0.88;;;;;;;5.27;74.15;97619.44;5024057;28;20453;-69
2023/05/01 02:59:33;;;;;;;0.95;0.95;;;;;;;5.22;74.34;97623.53;5018797;28;20045;-69
2023/05/01 03:02:01;;;;;;;0.85;0.85;;;;;;;5.16;74.57;97632.94;5031274;28;20045;-69
2023/05/01 03:04:28;;;;;;;0.73;0.73;;;;;;;5.11;74.47;97625.47;5028799;28;20057;-69
2023/05/01 03:06:56;;;;;;;0.73;0.73;;;;;;;5.12;74.56;97621.03;5045349;28;20045;-69
2023/05/01 03:09:23;;;;;;;0.95;0.95;;;;;;;5.25;73.63;97616.13;5018764;28;20422;-68
2023/05/01 03:11:51;;;;;;;0.50;0.50;;;;;;;5.25;73.93;97607.34;5022441;28;20580;-69
2023/05/01 03:14:20;;;;;;;0.75;0.75;;;;;;;5.37;73.19;97614.84;5027539;28;20041;-69
2023/05/01 03:16:47;;;;;;;0.57;0.57;;;;;;;5.18;73.85;97617.75;5026719;28;20033;-69
2023/05/01 03:19:15;;;;;;;0.65;0.65;;;;;;;4.97;74.48;97620.81;5020654;28;20053;-69
2023/05/01 03:21:42;;;;;;;0.22;0.22;;;;;;;4.77;75.45;97617.59;5024791;28;20436;-69
2023/05/01 03:24:10;;;;;;;0.95;0.95;;;;;;;4.73;75.69;97618.03;5021630;28;20148;-69
2023/05/01 03:26:38;;;;;;;0.60;0.60;;;;;;;4.72;75.80;97617.22;5029229;28;20037;-68
2023/05/01 03:29:07;;;;;;;0.73;0.73;;;;;;;4.83;75.02;97612.63;5031059;28;20087;-69
2023/05/01 03:31:38;;;;;;;0.55;0.55;;;;;;;4.78;75.33;97618.38;5029257;28;20046;-69
2023/05/01 03:34:07;;;;;;;0.73;0.73;;;;;;;4.77;75.06;97625.50;5030277;28;20042;-69
2023/05/01 03:36:35;;;;;;;0.65;0.65;;;;;;;4.69;75.66;97609.59;5027146;28;20103;-69
2023/05/01 03:39:05;;;;;;;0.75;0.75;;;;;;;4.61;76.05;97611.38;5025027;28;20038;-69
2023/05/01 03:41:58;;;;;;;0.60;0.60;;;;;;;4.69;75.57;97608.75;5027815;28;20041;-69
2023/05/01 03:44:29;;;;;;;0.70;0.70;;;;;;;4.59;76.09;97606.22;5024468;28;20057;-69
2023/05/01 03:46:58;;;;;;;0.68;0.68;;;;;;;4.85;74.31;97603.56;5036708;28;20060;-68
2023/05/01 03:49:28;;;;;;;0.50;0.50;;;;;;;4.60;75.67;97604.41;5017889;28;20049;-68
2023/05/01 03:51:55;;;;;;;0.80;0.80;;;;;;;4.44;76.51;97602.53;5027562;28;20505;-68
2023/05/01 03:54:24;;;;;;;0.70;0.70;;;;;;;4.46;76.68;97603.22;5023133;28;20050;-69
2023/05/01 03:57:01;;;;;;;0.77;0.77;;;;;;;4.52;76.52;97593.81;5027490;28;20513;-68
2023/05/01 03:59:29;;;;;;;0.70;0.70;;;;;;;4.61;75.99;97598.16;5029611;28;20132;-69
2023/05/01 04:01:59;;;;;;;0.60;0.60;;;;;;;4.61;75.81;97598.97;5029873;28;20049;-68
2023/05/01 04:04:29;;;;;;;0.20;0.20;;;;;;;4.70;75.46;97595.38;5037670;28;20150;-69
2023/05/01 04:06:58;;;;;;;0.95;0.95;;;;;;;4.69;75.60;97590.25;5019496;28;20045;-71
2023/05/01 04:09:25;;;;;;;0.90;0.90;;;;;;;4.71;75.38;97583.84;5022769;28;20060;-68
2023/05/01 04:11:53;;;;;;;0.30;0.30;;;;;;;4.67;75.69;97584.31;5024062;28;20434;-69
2023/05/01 04:14:20;;;;;;;1.00;1.00;;;;;;;4.84;74.68;97587.84;5027717;28;20037;-68
2023/05/01 04:16:49;;;;;;;0.68;0.68;;;;;;;4.65;75.77;97583.66;5028058;28;20037;-69
2023/05/01 04:19:19;;;;;;;0.95;0.95;;;;;;;4.59;75.96;97587.72;5022182;28;20046;-68
2023/05/01 04:21:51;;;;;;;0.15;0.15;;;;;;;4.65;75.55;97583.66;5040381;28;20866;-69
2023/05/01 04:24:19;;;;;;;0.60;0.60;;;;;;;4.52;76.10;97577.97;5022486;28;20045;-69
2023/05/01 04:26:46;;;;;;;0.98;0.98;;;;;;;4.34;76.68;97581.50;5029456;28;20049;-69
2023/05/01 04:29:14;;;;;;;0.80;0.80;;;;;;;4.36;76.75;97582.16;5033805;28;20127;-68
2023/05/01 04:31:42;;;;;;;1.10;1.10;;;;;;;4.41;76.73;97579.06;5029795;28;20050;-69
2023/05/01 04:34:09;;;;;;;0.63;0.63;;;;;;;4.46;76.40;97584.72;5030249;28;20067;-69
2023/05/01 04:36:39;;;;;;;0.80;0.80;;;;;;;4.59;75.66;97577.16;5026862;28;20041;-69
2023/05/01 04:39:07;;;;;;;0.17;0.17;;;;;;;4.57;75.85;97579.13;5035268;28;20413;-69
2023/05/01 04:41:35;;;;;;;0.60;0.60;;;;;;;4.65;75.70;97573.91;5029123;28;20516;-69
2023/05/01 04:44:05;;;;;;;0.90;0.90;;;;;;;4.85;74.96;97578.94;5031840;28;20052;-69
2023/05/01 04:46:33;;;;;;;0.95;0.95;;;;;;;4.52;75.97;97581.44;5031887;28;20504;-69
2023/05/01 04:49:00;;;;;;;0.70;0.70;;;;;;;4.49;76.47;97579.09;5027073;28;20413;-69
2023/05/01 04:51:28;;;;;;;0.90;0.90;;;;;;;4.46;76.44;97566.22;5027417;28;20042;-70
2023/05/01 04:53:57;;;;;;;0.77;0.77;;;;;;;4.52;76.47;97559.47;5024445;28;20091;-69
2023/05/01 04:56:27;;;;;;;0.55;0.55;;;;;;;4.63;76.30;97570.59;5022550;28;20060;-69
2023/05/01 04:58:59;;;;;;;0.70;0.70;;;;;;;4.60;76.60;97570.06;5025021;28;20045;-68
2023/05/01 05:01:29;;;;;;;0.82;0.82;;;;;;;4.57;76.55;97575.69;5027190;28;20512;-68
2023/05/01 05:03:57;;;;;;;0.80;0.80;;;;;;;4.62;76.83;97568.09;5024180;28;20519;-68
2023/05/01 05:06:25;;;;;;;0.68;0.68;;;;;;;4.71;76.35;97573.25;5026486;28;20073;-68
2023/05/01 05:08:54;;;;;;;0.93;0.93;;;;;;;4.74;76.47;97572.13;5018970;28;20041;-69
2023/05/01 05:11:23;;;;;;;0.63;0.63;;;;;;;4.71;76.69;97575.91;5025285;28;20046;-68
2023/05/01 05:14:00;;;;;;;0.75;0.75;;;;;;;4.73;76.49;97568.66;5041827;28;20058;-71
2023/05/01 05:16:27;;;;;;;0.90;0.90;;;;;;;4.86;75.90;97568.22;5023651;28;20054;-68
2023/05/01 05:18:57;;;;;;;1.02;1.02;;;;;;;4.92;75.93;97564.09;5024252;28;20562;-68
2023/05/01 05:21:26;;;;;;;0.65;0.65;;;;;;;4.99;75.45;97570.38;5027087;28;20095;-69
2023/05/01 05:23:56;;;;;;;0.60;0.60;;;;;;;4.98;75.79;97561.66;5024369;28;20140;-68
2023/05/01 05:26:25;;;;;;;0.80;0.80;;;;;;;4.98;75.76;97561.66;5024148;28;20073;-69
2023/05/01 05:28:55;;;;;;;0.90;0.90;;;;;;;5.12;75.62;97563.66;5029380;28;20109;-69
2023/05/01 05:31:23;;;;;;;0.82;0.82;;;;;;;5.19;75.56;97558.56;5029261;28;20084;-69
2023/05/01 05:33:51;;;;;;;0.57;0.57;;;;;;;5.20;75.52;97556.72;5021635;28;20064;-68
2023/05/01 05:36:18;;;;;;;0.82;0.82;;;;;;;5.27;75.41;97552.47;5023097;28;20052;-69
2023/05/01 05:38:47;;;;;;;0.88;0.88;;;;;;;5.36;75.07;97556.78;5024981;28;20056;-69
2023/05/01 05:41:18;;;;;;;0.85;0.85;;;;;;;5.45;74.96;97550.50;5029617;28;20045;-69
2023/05/01 05:43:48;;;;;;;0.80;0.80;;;;;;;5.51;74.62;97545.38;5031985;28;20034;-70
2023/05/01 05:46:16;;;;;;;1.10;1.10;;;;;;;5.59;74.66;97549.84;5028120;28;20056;-70
2023/05/01 05:48:44;;;;;;;0.80;0.80;;;;;;;5.63;74.62;97545.03;5026419;28;20053;-69
2023/05/01 05:51:11;;;;;;;0.70;0.70;;;;;;;5.62;74.53;97546.84;5032456;28;20065;-68
2023/05/01 05:53:39;;;;;;;0.80;0.80;;;;;;;5.65;74.48;97548.34;5023107;28;20579;-69
2023/05/01 05:56:07;;;;;;;1.05;1.05;;;;;;;5.76;74.31;97545.38;5030870;28;20049;-68
2023/05/01 05:58:35;;;;;;;0.68;0.68;;;;;;;5.77;74.09;97539.94;5030102;28;20045;-68
2023/05/01 06:01:05;;;;;;;1.02;1.02;;;;;;;5.81;74.05;97548.38;5026812;28;20033;-69
2023/05/01 06:03:34;;;;;;;0.93;0.93;;;;;;;5.91;73.92;97543.78;5020396;28;20053;-69
2023/05/01 06:06:03;;;;;;;0.80;0.80;;;;;;;6.03;73.81;97541.59;5028709;28;20041;-69
2023/05/01 06:08:31;;;;;;;0.57;0.57;;;;;;;6.12;73.75;97540.59;5023999;28;20054;-69
2023/05/01 06:10:58;;;;;;;0.85;0.85;;;;;;;6.24;73.59;97544.53;5037401;28;20140;-69
2023/05/01 06:13:26;;;;;;;0.75;0.75;;;;;;;6.34;73.08;97539.03;5024599;28;20080;-69
2023/05/01 06:15:54;;;;;;;1.02;1.02;;;;;;;6.41;72.84;97530.25;5029561;28;20461;-69
2023/05/01 06:18:23;;;;;;;0.70;0.70;;;;;;;6.55;72.61;97531.38;5023643;28;20501;-69
2023/05/01 06:20:51;;;;;;;0.73;0.73;;;;;;;6.68;72.24;97531.66;5029950;28;20053;-69
2023/05/01 06:23:19;;;;;;;0.50;0.50;;;;;;;6.92;71.61;97528.91;5026563;28;20060;-69
2023/05/01 06:25:56;;;;;;;0.85;0.85;;;;;;;7.14;70.77;97529.13;5024033;28;20499;-69
2023/05/01 06:28:23;;;;;;;0.75;0.75;;;;;;;7.20;70.16;97525.75;5029059;28;20045;-69
2023/05/01 06:30:51;;;;;;;0.80;0.80;;;;;;;7.31;69.93;97522.72;5028904;28;20515;-69
2023/05/01 06:33:19;;;;;;;0.80;0.80;;;;;;;7.40;69.78;97526.97;5029441;28;20046;-70
2023/05/01 06:35:59;;;;;;;;;;;;;;;7.41;69.16;97525.13;5028505;28;20041;-69
2023/05/01 06:38:27;;;;;;;0.50;0.50;;;;;;;7.52;68.71;97525.56;5027455;28;20295;-69
2023/05/01 06:40:55;;;;;;;0.55;0.55;;;;;;;7.72;68.09;97518.75;5029827;28;20051;-68
2023/05/01 06:43:26;;;;;;;0.90;0.90;;;;;;;7.94;68.05;97517.06;5023608;28;20050;-67
2023/05/01 06:45:54;;;;;;;0.82;0.82;;;;;;;8.05;67.44;97515.81;5026949;28;20566;-68
2023/05/01 06:48:22;;;;;;;0.70;0.70;;;;;;;8.20;66.65;97513.19;5026951;28;20493;-68
2023/05/01 06:50:49;;;;;;;0.77;0.77;;;;;;;8.41;66.15;97511.47;5027708;28;20033;-69
2023/05/01 06:53:18;;;;;;;0.60;0.60;;;;;;;8.46;65.34;97513.59;5027249;28;20081;-71
2023/05/01 06:55:46;;;;;;;0.80;0.80;;;;;;;8.60;65.28;97499.47;5025715;28;20050;-68
2023/05/01 06:58:13;;;;;;;0.77;0.77;;;;;;;8.79;64.63;97506.06;5024048;28;20054;-71
2023/05/01 07:00:51;;;;;;;0.70;0.70;;;;;;;8.95;64.17;97491.69;5039345;28;20049;-70
2023/05/01 07:03:18;;;;;;;0.90;0.90;;;;;;;9.06;64.49;97497.38;5029387;28;20050;-71
2023/05/01 07:05:46;;;;;;;0.50;0.50;;;;;;;9.06;64.11;97502.69;5022045;28;20129;-70
2023/05/01 07:08:14;;;;;;;0.75;0.75;;;;;;;9.30;62.88;97498.06;5028149;28;20570;-71
2023/05/01 07:10:42;;;;;;;0.70;0.70;;;;;;;9.48;62.52;97488.59;5020110;28;20049;-71
2023/05/01 07:13:10;;;;;;;0.50;0.50;;;;;;;9.69;62.11;97493.09;5025041;28;20045;-71
2023/05/01 07:15:38;;;;;;;0.70;0.70;;;;;;;9.91;60.92;97484.06;5027860;28;20057;-71
2023/05/01 07:18:05;;;;;;;0.80;0.80;;;;;;;10.09;60.25;97488.09;5026562;28;20096;-70
2023/05/01 07:20:33;;;;;;;0.90;0.90;;;;;;;10.12;59.20;97480.53;5029094;28;20049;-71
2023/05/01 07:23:01;;;;;;;0.68;0.68;;;;;;;10.25;58.56;97479.84;5024868;28;20155;-70
2023/05/01 07:25:31;;;;;;;0.73;0.73;;;;;;;10.48;58.86;97480.41;5027289;28;20132;-70
2023/05/01 07:28:03;;;;;;;0.60;0.60;;;;;;;10.83;57.80;97469.66;5021147;28;20046;-71
2023/05/01 07:30:31;;;;;;;0.25;0.25;;;;;;;11.02;56.73;97466.25;5032275;28;20440;-70
2023/05/01 07:32:59;;;;;;;0.55;0.55;;;;;;;11.23;56.67;97463.44;5032077;28;20116;-70
2023/05/01 07:35:27;;;;;;;0.60;0.60;;;;;;;11.38;55.51;97461.41;5030236;28;20076;-70
2023/05/01 07:37:54;;;;;;;0.60;0.60;;;;;;;11.59;55.14;97467.59;5025441;28;20050;-70
2023/05/01 07:40:22;;;;;;;0.50;0.50;;;;;;;11.95;54.01;97461.88;5029305;28;20467;-70
2023/05/01 07:42:49;;;;;;;0.70;0.70;;;;;;;12.46;49.78;97454.81;5029013;28;20049;-70
2023/05/01 07:45:22;;;;;;;0.73;0.73;;;;;;;12.75;48.50;97456.19;5026769;28;20056;-70
2023/05/01 07:47:51;;;;;;;0.70;0.70;;;;;;;12.88;48.37;97448.06;5024541;28;20056;-71
2023/05/01 07:50:18;;;;;;;0.60;0.60;;;;;;;12.99;47.29;97445.75;5027825;28;20041;-70
2023/05/01 07:52:46;;;;;;;0.55;0.55;;;;;;;13.00;47.17;97450.09;5030228;28;20580;-70
2023/05/01 07:55:14;;;;;;;0.32;0.32;;;;;;;13.14;47.15;97440.97;5028759;28;20033;-71
2023/05/01 07:57:41;;;;;;;0.55;0.55;;;;;;;13.22;46.63;97438.88;5028881;28;20481;-71
2023/05/01 08:00:10;;;;;;;0.63;0.63;;;;;;;13.41;46.84;97439.78;5024602;28;20080;-70
2023/05/01 08:02:42;;;;;;;0.60;0.60;;;;;;;13.42;46.40;97432.56;5024137;28;20065;-70
2023/05/01 08:05:10;;;;;;;0.50;0.50;;;;;;;13.44;45.88;97441.22;5030056;28;20056;-70
2023/05/01 08:07:37;;;;;;;0.55;0.55;;;;;;;13.47;46.38;97432.75;5029331;28;20476;-71
2023/05/01 08:10:06;;;;;;;0.90;0.90;;;;;;;13.49;46.82;97428.81;5071308;22;20103;-73
2023/05/01 08:12:33;;;;;;;0.10;0.10;;;;;;;13.52;46.63;97420.31;5049613;28;20434;-73
2023/05/01 08:15:01;;;;;;;0.52;0.52;;;;;;;13.46;46.60;97423.06;5046478;28;20045;-73
2023/05/01 08:17:29;;;;;;;0.40;0.40;;;;;;;13.49;46.83;97422.63;5049890;28;20048;-73
2023/05/01 08:19:58;;;;;;;0.60;0.60;;;;;;;13.62;46.99;97425.19;5057038;28;20045;-73
2023/05/01 08:22:25;;;;;;;0.47;0.47;;;;;;;13.80;47.10;97419.09;5038828;28;20049;-73
2023/05/01 08:24:53;;;;;;;0.60;0.60;;;;;;;13.88;47.30;97427.69;5034626;28;20037;-75
2023/05/01 08:27:21;;;;;;;0.40;0.40;;;;;;;14.07;46.95;97420.47;5059255;28;20044;-75
2023/05/01 08:29:48;;;;;;;0.00;0.00;;;;;;;14.17;45.57;97418.13;5048317;28;20422;-74
2023/05/01 08:32:17;;;;;;;0.43;0.43;;;;;;;14.38;45.45;97410.69;5051593;28;20057;-75
2023/05/01 08:34:45;;;;;;;0.50;0.50;;;;;;;14.55;45.02;97406.38;5043365;28;20556;-73
2023/05/01 08:37:14;;;;;;;0.63;0.63;;;;;;;14.55;44.41;97401.81;5045165;28;20052;-75
2023/05/01 08:39:42;;;;;;;0.57;0.57;;;;;;;14.75;44.16;97406.94;5047866;28;20043;-75
2023/05/01 08:42:09;;;;;;;0.95;0.95;;;;;;;14.80;44.21;97399.06;5048610;28;20103;-75
2023/05/01 08:44:38;;;;;;;0.50;0.50;;;;;;;14.96;43.83;97394.91;5057516;28;20060;-74
2023/05/01 08:47:12;;;;;;;0.40;0.40;;;;;;;15.12;43.17;97399.66;5054488;28;20045;-74
2023/05/01 08:49:41;;;;;;;0.60;0.60;;;;;;;15.12;42.59;97391.59;5047550;28;20047;-75
2023/05/01 08:52:11;;;;;;;0.32;0.32;;;;;;;15.15;42.75;97387.63;5046577;28;20041;-74
2023/05/01 08:54:42;;;;;;;0.55;0.55;;;;;;;15.30;42.70;97379.94;5039524;28;20091;-75
2023/05/01 08:57:11;;;;;;;0.63;0.63;;;;;;;15.48;42.84;97387.13;5046494;28;20049;-75
2023/05/01 08:59:40;;;;;;;0.75;0.75;;;;;;;15.51;42.66;97378.59;5050019;28;20037;-75
2023/05/01 09:02:08;;;;;;;0.60;0.60;;;;;;;15.46;42.43;97382.00;5057260;28;20048;-75
2023/05/01 09:04:37;;;;;;;0.40;0.40;;;;;;;15.50;42.61;97385.84;5049116;28;20237;-75
2023/05/01 09:07:05;;;;;;;0.50;0.50;;;;;;;15.60;42.16;97379.94;5058184;28;20520;-75
2023/05/01 09:09:33;;;;;;;0.50;0.50;;;;;;;15.73;42.12;97377.03;5046966;28;20491;-75
2023/05/01 09:12:10;;;;;;;0.60;0.60;;;;;;;16.14;40.89;97374.22;5046811;28;20049;-75
2023/05/01 09:14:38;;;;;;;0.50;0.50;;;;;;;16.19;41.28;97380.78;5053642;28;20116;-75
2023/05/01 09:17:05;;;;;;;0.52;0.52;;;;;;;16.25;40.19;97375.28;5059321;28;20056;-75
2023/05/01 09:19:33;;;;;;;0.55;0.55;;;;;;;16.10;40.35;97372.22;5045521;28;20041;-75
2023/05/01 09:22:01;;;;;;;0.43;0.43;;;;;;;15.97;41.25;97378.69;5053328;28;20090;-73
2023/05/01 09:24:29;;;;;;;0.45;0.45;;;;;;;15.87;41.53;97373.06;5060504;28;20041;-74
2023/05/01 09:26:57;;;;;;;0.50;0.50;;;;;;;15.93;41.56;97372.13;5054020;28;20098;-73
2023/05/01 09:29:44;;;;;;;0.45;0.45;;;;;;;16.00;41.16;97367.44;5047412;28;20041;-73
2023/05/01 09:32:19;;;;;;;0.47;0.47;;;;;;;16.29;40.92;97359.47;5049375;28;20630;-74
2023/05/01 09:34:48;;;;;;;0.60;0.60;;;;;;;16.34;40.39;97356.88;5054322;28;20048;-73
2023/05/01 09:37:26;;;;;;;0.40;0.40;;;;;;;16.36;41.02;97352.06;5043011;28;20065;-73
2023/05/01 09:40:02;;;;;;;0.40;0.40;;;;;;;16.38;40.08;97349.97;5051004;28;20036;-74
2023/05/01 09:42:30;;;;;;;0.65;0.65;;;;;;;16.53;40.68;97351.09;5044626;28;20049;-73
2023/05/01 09:45:00;;;;;;;0.50;0.50;;;;;;;16.63;39.38;97344.28;5062184;28;20573;-74
2023/05/01 09:47:28;;;;;;;0.57;0.57;;;;;;;16.67;39.87;97346.28;5048372;28;20500;-74
2023/05/01 09:49:58;;;;;;;0.95;0.95;;;;;;;16.96;39.71;97339.00;5052079;28;20048;-74
2023/05/01 09:52:27;;;;;;;0.63;0.63;;;;;;;17.21;39.46;97341.38;5048497;28;20107;-73
2023/05/01 09:55:15;;;;;;;0.32;0.32;;;;;;;17.14;39.67;97332.59;5054657;28;20040;-73
2023/05/01 09:57:44;;;;;;;0.43;0.43;;;;;;;17.19;39.49;97336.22;5053959;28;20045;-74
2023/05/01 10:00:14;;;;;;;0.45;0.45;;;;;;;17.11;39.54;97330.41;5045274;28;20092;-74
2023/05/01 10:02:43;;;;;;;0.30;0.30;;;;;;;16.87;39.34;97326.97;5048702;28;20571;-73
2023/05/01 10:05:11;;;;;;;0.45;0.45;;;;;;;16.87;39.46;97317.00;5056223;28;20068;-73
2023/05/01 10:07:40;;;;;;;0.60;0.60;;;;;;;17.33;39.38;97322.41;5044719;28;20497;-73
2023/05/01 10:10:17;;;;;;;0.65;0.65;;;;;;;17.57;37.58;97321.16;5043139;28;20037;-75
2023/05/01 10:12:45;;;;;;;0.40;0.40;;;;;;;17.21;37.08;97307.13;5048432;28;20548;-74
2023/05/01 10:15:14;;;;;;;0.32;0.32;;;;;;;17.37;37.44;97308.16;5054577;28;20041;-74
2023/05/01 10:17:54;;;;;;;0.43;0.43;;;;;;;17.96;36.54;97311.28;5037544;28;20064;-73
2023/05/01 10:20:22;;;;;;;0.40;0.40;;;;;;;18.35;34.79;97306.66;5045533;28;20045;-74
2023/05/01 10:22:49;;;;;;;0.52;0.52;;;;;;;18.24;35.08;97307.59;5056353;28;20102;-73
2023/05/01 10:25:17;;;;;;;0.40;0.40;;;;;;;18.77;35.43;97304.22;5050370;28;20045;-74
2023/05/01 10:27:45;;;;;;;0.32;0.32;;;;;;;18.73;34.93;97307.69;5050783;28;20037;-73
2023/05/01 10:30:14;;;;;;;0.30;0.30;;;;;;;18.69;35.28;97301.94;5049049;28;20491;-73
2023/05/01 10:32:42;;;;;;;0.70;0.70;;;;;;;18.44;35.68;97291.66;5052523;28;20077;-73
2023/05/01 10:35:13;;;;;;;0.40;0.40;;;;;;;18.78;35.78;97302.34;5052726;28;20117;-73
2023/05/01 10:37:47;;;;;;;0.30;0.30;;;;;;;18.84;35.31;97287.78;5043967;28;20107;-75
2023/05/01 10:40:46;;;;;;;0.50;0.50;;;;;;;18.85;35.60;97290.25;5059062;28;20037;-73
2023/05/01 10:43:16;;;;;;;0.40;0.40;;;;;;;18.63;35.46;97282.16;5040729;28;20356;-75
2023/05/01 10:45:45;;;;;;;0.38;0.38;;;;;;;18.61;35.67;97292.41;5059962;28;20969;-75
2023/05/01 10:48:51;;;;;;;0.47;0.47;;;;;;;19.00;34.67;97276.03;5043317;28;20389;-74
2023/05/01 10:51:20;;;;;;;0.30;0.30;;;;;;;19.06;32.85;97262.31;5052077;28;20143;-74
2023/05/01 10:54:25;;;;;;;0.40;0.40;;;;;;;18.94;33.66;97268.97;5037459;28;20076;-74
2023/05/01 10:56:53;;;;;;;;;;;;;;;18.88;33.97;97262.69;5047777;28;20044;-73
2023/05/01 10:59:21;;;;;;;0.40;0.40;;;;;;;18.94;33.60;97263.53;5044563;28;19924;-73
2023/05/01 11:01:51;;;;;;;0.40;0.40;;;;;;;19.05;33.66;97262.56;5050253;28;20052;-73
2023/05/01 11:04:49;;;;;;;0.40;0.40;;;;;;;19.27;32.92;97247.06;5046274;28;20046;-74
2023/05/01 11:07:18;;;;;;;0.40;0.40;;;;;;;19.23;32.47;97240.53;5043224;28;20046;-75
2023/05/01 11:09:48;;;;;;;0.40;0.40;;;;;;;19.38;33.77;97248.78;5050114;28;20044;-75
2023/05/01 11:12:49;;;;;;;0.65;0.65;;;;;;;19.89;32.25;97238.31;5051295;28;20045;-75
2023/05/01 11:15:31;;;;;;;0.30;0.30;;;;;;;19.92;31.73;97236.97;5061443;28;20076;-75
2023/05/01 11:18:01;;;;;;;0.28;0.28;;;;;;;20.32;31.53;97229.03;5054650;28;20515;-75
2023/05/01 11:20:49;;;;;;;0.47;0.47;;;;;;;20.43;30.82;97238.84;5048710;28;20048;-75
2023/05/01 11:23:20;;;;;;;0.40;0.40;;;;;;;20.23;31.01;97232.50;5047722;28;20496;-74
2023/05/01 11:25:49;;;;;;;0.30;0.30;;;;;;;20.36;31.18;97224.72;5042452;28;20076;-74
2023/05/01 11:28:24;;;;;;;0.30;0.30;;;;;;;20.16;31.50;97214.59;5044081;28;20041;-74
2023/05/01 11:30:51;;;;;;;0.28;0.28;;;;;;;19.96;32.06;97213.69;5045518;28;20041;-74
2023/05/01 11:33:24;;;;;;;0.10;0.10;;;;;;;19.83;32.05;97187.88;5048629;28;20478;-74
2023/05/01 11:35:59;;;;;;;0.43;0.43;;;;;;;19.46;33.23;97211.47;5046028;28;20044;-74
2023/05/01 11:38:27;;;;;;;0.50;0.50;;;;;;;19.28;33.31;97200.00;5042553;28;20045;-73
2023/05/01 11:40:58;;;;;;;0.30;0.30;;;;;;;19.46;33.67;97211.47;5053538;28;20491;-74
2023/05/01 11:43:26;;;;;;;0.40;0.40;;;;;;;19.34;33.58;97201.66;5043768;28;20106;-74
2023/05/01 11:46:01;;;;;;;0.50;0.50;;;;;;;19.25;33.96;97197.78;5059710;28;20052;-74
2023/05/01 11:48:31;;;;;;;0.47;0.47;;;;;;;19.35;33.89;97187.03;5044109;28;20087;-74
2023/05/01 11:50:59;;;;;;;0.32;0.32;;;;;;;19.12;34.74;97192.81;5057760;28;20491;-74
2023/05/01 11:53:27;;;;;;;0.45;0.45;;;;;;;19.45;33.82;97191.69;5049411;28;20099;-74